Time;durP1;ratioP1;P1;durP2;ratioP2;P2;SDS_P1;SDS_P2;PMS_P1;PMS_P2;Temp;Humidity;BMP_temperature;BMP_pressure;BME280_temperature;BME280_humidity;BME280_pressure;Samples;Min_cycle;Max_cycle;Signal;HPM_P1;HPM_P2
2022/03/04 00:01:35;;;;;;;10.85;8.90;;;;;;;8.28;68.90;100700.53;5033341;28;102221;-54
2022/03/04 00:04:01;;;;;;;12.00;8.88;;;;;;;8.28;69.76;100698.63;5032956;28;102406;-55
2022/03/04 00:06:27;;;;;;;10.68;8.80;;;;;;;8.28;69.82;100705.94;5034352;28;102148;-55
2022/03/04 00:08:55;;;;;;;12.60;9.23;;;;;;;8.27;69.46;100699.72;5033074;27;103915;-54
2022/03/04 00:11:22;;;;;;;11.57;9.13;;;;;;;8.27;68.69;100699.72;5033543;27;102446;-55
2022/03/04 00:13:48;;;;;;;11.38;8.32;;;;;;;8.28;68.96;100701.34;5031826;27;102663;-55
2022/03/04 00:16:15;;;;;;;10.55;9.35;;;;;;;8.28;68.96;100697.81;5034055;27;102147;-55
2022/03/04 00:18:41;;;;;;;11.35;8.40;;;;;;;8.29;69.29;100702.16;5032505;28;103624;-54
2022/03/04 00:21:09;;;;;;;12.27;9.50;;;;;;;8.28;69.60;100701.34;5033473;27;102013;-54
2022/03/04 00:23:36;;;;;;;11.75;9.20;;;;;;;8.28;69.05;100693.22;5032804;27;101956;-55
2022/03/04 00:26:04;;;;;;;9.40;8.32;;;;;;;8.28;69.14;100692.41;5033563;27;102188;-55
2022/03/04 00:28:31;;;;;;;11.13;8.87;;;;;;;8.29;68.85;100691.31;5032408;27;103824;-55
2022/03/04 00:30:58;;;;;;;11.95;8.75;;;;;;;8.27;68.75;100688.06;5033229;28;102271;-55
2022/03/04 00:33:24;;;;;;;10.88;8.55;;;;;;;8.27;69.45;100691.59;5032599;28;102774;-54
2022/03/04 00:35:53;;;;;;;10.38;8.50;;;;;;;8.27;69.95;100688.06;5015753;28;102368;-54
2022/03/04 00:38:19;;;;;;;11.45;8.57;;;;;;;8.29;69.33;100688.59;5025063;28;103817;-54
2022/03/04 00:40:47;;;;;;;10.85;8.70;;;;;;;8.28;69.94;100684.25;5021199;28;102193;-59
2022/03/04 00:43:16;;;;;;;9.02;7.53;;;;;;;8.28;69.65;100684.25;5031986;28;102341;-55
2022/03/04 00:45:43;;;;;;;11.43;8.48;;;;;;;8.29;69.20;100684.00;5033298;28;102285;-54
2022/03/04 00:48:09;;;;;;;11.23;8.98;;;;;;;8.27;69.33;100694.28;5019104;27;103825;-55
2022/03/04 00:50:36;;;;;;;10.48;8.85;;;;;;;8.27;68.98;100688.88;5026494;27;101915;-54
2022/03/04 00:53:03;;;;;;;9.85;7.90;;;;;;;8.28;69.15;100689.69;5032505;27;101933;-55
2022/03/04 00:55:29;;;;;;;11.05;8.70;;;;;;;8.28;69.54;100690.50;5033194;27;102159;-56
2022/03/04 00:57:56;;;;;;;11.05;8.55;;;;;;;8.27;69.79;100697.00;5030557;27;103957;-55
2022/03/04 01:00:24;;;;;;;11.27;8.07;;;;;;;8.28;69.57;100690.50;5034472;27;102458;-54
2022/03/04 01:02:50;;;;;;;11.77;8.50;;;;;;;8.29;69.29;100685.88;5052462;27;102001;-54
2022/03/04 01:05:17;;;;;;;11.18;8.90;;;;;;;8.27;69.28;100688.88;5013011;28;102268;-55
2022/03/04 01:07:44;;;;;;;10.95;8.35;;;;;;;8.27;68.98;100688.88;5011616;28;103821;-55
2022/03/04 01:10:11;;;;;;;9.88;8.48;;;;;;;8.28;69.00;100686.97;5012583;28;102447;-55
2022/03/04 01:12:37;;;;;;;10.18;8.43;;;;;;;8.27;69.82;100683.44;5012653;28;101893;-55
2022/03/04 01:15:05;;;;;;;9.80;8.38;;;;;;;8.27;69.05;100675.31;5033335;27;102146;-54
2022/03/04 01:17:33;;;;;;;9.27;7.57;;;;;;;8.26;69.75;100676.41;5031538;27;103819;-55
2022/03/04 01:19:59;;;;;;;9.73;8.13;;;;;;;8.27;68.90;100683.44;5032418;27;101961;-54
2022/03/04 01:22:26;;;;;;;9.48;7.85;;;;;;;8.28;69.76;100674.22;5031634;27;102193;-55
2022/03/04 01:24:53;;;;;;;9.88;8.13;;;;;;;8.27;69.15;100683.44;5032941;27;102139;-55
2022/03/04 01:27:20;;;;;;;10.25;8.07;;;;;;;8.28;69.93;100685.06;5031403;27;103780;-54
2022/03/04 01:29:46;;;;;;;9.90;8.15;;;;;;;8.28;68.99;100676.94;5032089;27;101930;-55
2022/03/04 01:32:13;;;;;;;9.82;7.68;;;;;;;8.28;69.66;100678.84;5031908;27;102522;-55
2022/03/04 01:34:41;;;;;;;9.70;8.05;;;;;;;8.28;68.94;100678.84;5032333;27;102161;-54
2022/03/04 01:37:09;;;;;;;10.43;7.72;;;;;;;8.28;69.12;100682.38;5031758;27;103792;-55
2022/03/04 01:39:36;;;;;;;10.77;7.68;;;;;;;8.28;69.07;100679.66;5048444;27;101939;-54
2022/03/04 01:42:03;;;;;;;9.15;8.02;;;;;;;8.26;68.94;100676.41;5051714;27;102428;-55
2022/03/04 01:44:30;;;;;;;10.07;7.57;;;;;;;8.27;69.49;100683.44;5040358;27;102361;-55
2022/03/04 01:46:56;;;;;;;8.73;7.43;;;;;;;8.27;69.66;100683.44;5031405;27;103803;-55
2022/03/04 01:49:23;;;;;;;9.48;7.65;;;;;;;8.26;69.10;100676.41;5031642;28;101913;-54
2022/03/04 01:51:51;;;;;;;9.20;7.13;;;;;;;8.27;69.25;100685.34;5031491;28;102391;-55
2022/03/04 01:54:17;;;;;;;9.18;7.35;;;;;;;8.27;69.61;100683.44;5032838;28;102138;-55
2022/03/04 01:56:44;;;;;;;8.73;7.60;;;;;;;8.27;69.02;100686.16;5031619;27;103825;-55
2022/03/04 01:59:10;;;;;;;9.30;7.50;;;;;;;8.28;69.97;100690.50;5032511;27;102564;-54
2022/03/04 02:01:37;;;;;;;8.63;7.35;;;;;;;8.27;69.70;100688.88;5035082;27;102475;-55
2022/03/04 02:04:04;;;;;;;7.78;6.90;;;;;;;8.28;69.12;100703.25;5036593;27;102551;-54
2022/03/04 02:06:30;;;;;;;9.48;7.22;;;;;;;8.28;69.21;100700.53;5036169;28;103855;-55
2022/03/04 02:08:58;;;;;;;9.20;7.55;;;;;;;8.28;70.01;100700.53;5037231;27;102285;-55
2022/03/04 02:11:24;;;;;;;10.60;7.95;;;;;;;8.28;69.19;100698.63;5048034;27;102412;-55
2022/03/04 02:13:51;;;;;;;9.45;7.38;;;;;;;8.27;69.31;100707.03;5058485;27;102436;-55
2022/03/04 02:16:25;;;;;;;9.68;8.00;;;;;;;8.27;69.05;100698.91;5056193;27;104224;-55
2022/03/04 02:18:51;;;;;;;8.73;7.30;;;;;;;8.28;70.08;100700.53;5055835;27;102171;-55
2022/03/04 02:21:22;;;;;;;9.68;7.75;;;;;;;8.26;69.08;100703.50;5055858;27;101933;-55
2022/03/04 02:23:50;;;;;;;8.45;6.88;;;;;;;8.26;69.61;100703.50;5045428;27;102552;-55
2022/03/04 02:26:17;;;;;;;8.40;6.80;;;;;;;8.27;69.66;100702.44;5035102;27;103947;-55
2022/03/04 02:28:44;;;;;;;8.65;7.40;;;;;;;8.27;69.07;100707.84;5039628;27;101936;-55
2022/03/04 02:31:14;;;;;;;8.32;6.85;;;;;;;8.28;69.73;100705.94;5055199;27;101982;-55
2022/03/04 02:33:40;;;;;;;8.05;7.25;;;;;;;8.28;69.24;100706.78;5051276;27;102740;-55
2022/03/04 02:36:07;;;;;;;8.07;6.78;;;;;;;8.27;69.63;100705.13;5034100;28;103500;-55
2022/03/04 02:38:33;;;;;;;8.57;6.80;;;;;;;8.29;69.62;100707.59;5034071;28;102112;-54
2022/03/04 02:41:01;;;;;;;7.78;6.75;;;;;;;8.26;69.55;100698.09;5035171;27;101905;-55
2022/03/04 02:43:28;;;;;;;8.27;6.78;;;;;;;8.26;69.93;100706.22;5048329;27;102187;-55
2022/03/04 02:45:55;;;;;;;7.90;7.10;;;;;;;8.28;69.74;100705.94;5034114;27;103844;-55
2022/03/04 02:48:21;;;;;;;7.63;6.80;;;;;;;8.28;69.04;100705.94;5035008;28;101900;-55
2022/03/04 02:50:47;;;;;;;7.97;6.97;;;;;;;8.27;69.22;100707.84;5034008;27;101990;-55
2022/03/04 02:53:14;;;;;;;9.60;7.18;;;;;;;8.28;69.42;100714.09;5035694;27;102005;-55
2022/03/04 02:55:40;;;;;;;7.30;6.60;;;;;;;8.27;69.32;100705.13;5033944;27;103898;-55
2022/03/04 02:58:08;;;;;;;7.72;6.93;;;;;;;8.27;70.01;100707.84;5035316;27;102158;-54
2022/03/04 03:00:35;;;;;;;8.27;6.60;;;;;;;8.27;69.58;100710.56;5034052;27;102310;-55
2022/03/04 03:03:01;;;;;;;8.48;7.28;;;;;;;8.28;69.65;100705.94;5036096;27;102439;-55
2022/03/04 03:05:28;;;;;;;8.55;7.60;;;;;;;8.27;69.46;100710.56;5034300;28;103781;-55
2022/03/04 03:07:55;;;;;;;8.73;6.55;;;;;;;8.29;69.68;100718.44;5035407;27;101882;-55
2022/03/04 03:10:21;;;;;;;8.05;7.05;;;;;;;8.27;69.58;100705.13;5034324;27;101822;-55
2022/03/04 03:12:48;;;;;;;7.82;6.95;;;;;;;8.28;69.37;100709.47;5035882;27;102105;-55
2022/03/04 03:15:15;;;;;;;8.68;7.40;;;;;;;8.27;70.01;100709.75;5033932;28;103837;-55
2022/03/04 03:17:42;;;;;;;8.73;6.80;;;;;;;8.28;69.20;100716.81;5034764;28;101856;-55
2022/03/04 03:20:11;;;;;;;8.52;6.63;;;;;;;8.27;69.54;100715.97;5034698;27;101889;-55
2022/03/04 03:22:38;;;;;;;7.45;6.30;;;;;;;8.28;69.36;100712.19;5035427;27;102306;-55
2022/03/04 03:25:05;;;;;;;8.48;6.95;;;;;;;8.27;70.03;100705.13;5033774;28;103595;-55
2022/03/04 03:27:32;;;;;;;8.68;7.18;;;;;;;8.26;69.36;100708.94;5034322;27;102502;-55
2022/03/04 03:29:58;;;;;;;10.20;6.78;;;;;;;8.27;69.78;100710.56;5034203;27;102318;-55
2022/03/04 03:32:26;;;;;;;8.88;7.13;;;;;;;8.26;69.04;100714.34;5035171;28;102400;-55
2022/03/04 03:34:53;;;;;;;9.68;6.88;;;;;;;8.28;69.51;100705.94;5033312;28;103791;-55
2022/03/04 03:37:19;;;;;;;7.50;6.70;;;;;;;8.27;70.01;100713.28;5033836;28;102289;-55
2022/03/04 03:39:45;;;;;;;7.95;6.97;;;;;;;8.27;69.06;100718.69;5033691;27;102336;-55
2022/03/04 03:42:12;;;;;;;8.07;6.75;;;;;;;8.28;69.58;100717.63;5034861;27;102596;-55
2022/03/04 03:44:38;;;;;;;8.95;7.35;;;;;;;8.28;69.50;100720.31;5033160;27;103802;-55
2022/03/04 03:47:05;;;;;;;8.75;6.97;;;;;;;8.28;69.17;100723.03;5033622;28;102263;-55
2022/03/04 03:49:33;;;;;;;7.63;6.82;;;;;;;8.27;69.92;100721.41;5033567;28;102373;-55
2022/03/04 03:51:59;;;;;;;7.25;6.35;;;;;;;8.27;70.18;100715.97;5034534;27;102173;-54
2022/03/04 03:54:26;;;;;;;8.30;6.72;;;;;;;8.28;69.19;100716.81;5033375;27;103802;-54
2022/03/04 03:56:52;;;;;;;8.10;6.97;;;;;;;8.27;70.17;100710.56;5034130;28;101965;-55
2022/03/04 03:59:19;;;;;;;7.75;6.63;;;;;;;8.27;69.15;100710.56;5033756;28;101828;-54
2022/03/04 04:01:45;;;;;;;7.68;6.88;;;;;;;8.28;69.56;100712.19;5034328;27;102170;-55
2022/03/04 04:04:12;;;;;;;7.53;6.47;;;;;;;8.28;69.28;100716.81;5033496;27;103758;-55
2022/03/04 04:06:40;;;;;;;7.38;6.63;;;;;;;8.27;69.26;100715.16;5033855;27;102357;-55
2022/03/04 04:09:08;;;;;;;8.00;7.18;;;;;;;8.27;69.05;100723.31;5033743;28;102333;-54
2022/03/04 04:11:37;;;;;;;8.25;6.75;;;;;;;8.28;69.50;100728.47;5034373;27;102218;-55
2022/03/04 04:14:04;;;;;;;7.85;6.85;;;;;;;8.26;69.78;100725.19;5033460;27;104067;-54
2022/03/04 04:16:30;;;;;;;7.13;6.38;;;;;;;8.27;69.11;100732.25;5033534;27;102733;-54
2022/03/04 04:18:57;;;;;;;7.13;6.43;;;;;;;8.26;70.04;100727.91;5033083;27;102416;-54
2022/03/04 04:21:24;;;;;;;7.72;6.93;;;;;;;8.28;69.50;100727.66;5034807;27;102125;-55
2022/03/04 04:23:52;;;;;;;8.25;6.70;;;;;;;8.27;69.31;100737.69;5031918;27;103787;-55
2022/03/04 04:26:19;;;;;;;7.53;6.45;;;;;;;8.27;69.17;100732.25;5033380;27;102185;-55
2022/03/04 04:28:45;;;;;;;7.90;7.10;;;;;;;8.28;69.82;100733.88;5032867;28;101837;-54
2022/03/04 04:31:12;;;;;;;7.57;6.70;;;;;;;8.27;69.25;100732.25;5034610;27;102784;-55
2022/03/04 04:33:39;;;;;;;7.78;6.60;;;;;;;8.27;69.53;100737.69;5032646;27;103828;-55
2022/03/04 04:36:05;;;;;;;8.23;6.60;;;;;;;8.28;69.50;100744.72;5032627;28;101921;-55
2022/03/04 04:38:32;;;;;;;7.25;6.53;;;;;;;8.27;69.35;100748.53;5032328;27;102621;-54
2022/03/04 04:41:00;;;;;;;7.70;6.53;;;;;;;8.27;69.54;100745.81;5033398;27;102158;-55
2022/03/04 04:43:26;;;;;;;10.70;6.32;;;;;;;8.27;69.40;100739.56;5032491;27;103835;-54
2022/03/04 04:45:53;;;;;;;8.23;6.60;;;;;;;8.28;69.47;100762.88;5033114;27;102311;-55
2022/03/04 04:48:20;;;;;;;7.53;6.72;;;;;;;8.27;69.44;100764.78;5032761;27;101997;-55
2022/03/04 04:50:46;;;;;;;8.48;7.28;;;;;;;8.27;70.06;100769.41;5033224;28;102166;-55
2022/03/04 04:53:13;;;;;;;8.27;6.63;;;;;;;8.26;70.05;100771.28;5031304;27;103450;-55
2022/03/04 04:55:40;;;;;;;8.82;6.90;;;;;;;8.26;69.87;100774.00;5030898;27;101876;-55
2022/03/04 04:58:08;;;;;;;7.25;6.47;;;;;;;8.28;70.03;100781.88;5031244;27;102373;-55
2022/03/04 05:00:34;;;;;;;7.82;6.90;;;;;;;8.27;69.45;100778.34;5033091;27;102193;-54
2022/03/04 05:03:01;;;;;;;7.80;6.88;;;;;;;8.27;69.30;100786.47;5031713;28;103219;-55
2022/03/04 05:05:28;;;;;;;7.75;6.72;;;;;;;8.27;69.98;100791.91;5032869;27;102480;-55
2022/03/04 05:07:54;;;;;;;7.40;6.65;;;;;;;8.27;69.39;100786.47;5032318;27;102396;-55
2022/03/04 05:10:21;;;;;;;7.80;6.63;;;;;;;8.27;69.20;100782.94;5033410;27;102256;-55
2022/03/04 05:12:47;;;;;;;7.60;6.82;;;;;;;8.27;69.79;100786.47;5033980;27;103794;-55
2022/03/04 05:15:15;;;;;;;8.48;7.60;;;;;;;8.26;70.01;100782.13;5039722;27;102387;-55
2022/03/04 05:17:42;;;;;;;8.23;6.50;;;;;;;8.27;69.06;100786.47;5030100;27;101880;-55
2022/03/04 05:20:09;;;;;;;7.28;6.57;;;;;;;8.27;69.81;100780.25;5041753;27;102445;-55
2022/03/04 05:22:35;;;;;;;8.52;6.72;;;;;;;8.27;69.86;100786.47;5049870;27;103750;-54
2022/03/04 05:25:02;;;;;;;8.30;6.75;;;;;;;8.26;69.17;100784.84;5050608;27;102238;-55
2022/03/04 05:27:30;;;;;;;8.68;7.50;;;;;;;8.28;69.54;100787.28;5050145;27;102553;-55
2022/03/04 05:29:56;;;;;;;7.72;6.93;;;;;;;8.26;69.33;100790.28;5053383;27;102224;-55
2022/03/04 05:32:24;;;;;;;8.13;7.32;;;;;;;8.26;69.96;100792.97;5051775;27;104493;-55
2022/03/04 05:34:50;;;;;;;8.38;7.47;;;;;;;8.27;69.96;100794.63;5052538;27;102577;-55
2022/03/04 05:37:17;;;;;;;7.95;7.15;;;;;;;8.27;70.05;100797.31;5044278;27;102461;-54
2022/03/04 05:39:43;;;;;;;8.15;7.28;;;;;;;8.28;69.46;100806.28;5032572;27;102451;-55
2022/03/04 05:42:10;;;;;;;8.10;6.85;;;;;;;8.27;69.83;100805.47;5031395;28;103975;-55
2022/03/04 05:44:36;;;;;;;7.63;6.68;;;;;;;8.27;70.06;100808.16;5031529;28;101947;-55
2022/03/04 05:47:03;;;;;;;9.25;7.32;;;;;;;8.27;69.81;100813.59;5031649;28;101894;-54
2022/03/04 05:49:31;;;;;;;8.35;6.78;;;;;;;8.26;70.28;100803.84;5032320;27;102170;-55
2022/03/04 05:51:58;;;;;;;8.40;7.45;;;;;;;8.27;69.54;100808.16;5030785;28;102971;-55
2022/03/04 05:54:24;;;;;;;8.65;7.05;;;;;;;8.28;69.07;100814.41;5031988;27;101907;-55
2022/03/04 05:56:51;;;;;;;9.05;7.15;;;;;;;8.27;69.06;100808.16;5031509;28;102365;-54
2022/03/04 05:59:17;;;;;;;8.75;6.93;;;;;;;8.27;69.36;100807.34;5032746;27;102330;-55
2022/03/04 06:01:44;;;;;;;9.68;8.20;;;;;;;8.27;69.37;100812.78;5031120;27;103824;-55
2022/03/04 06:04:10;;;;;;;9.15;7.07;;;;;;;8.26;69.55;100814.69;5031788;28;102476;-55
2022/03/04 06:06:38;;;;;;;7.95;7.10;;;;;;;8.27;69.67;100813.59;5031161;27;102429;-55
2022/03/04 06:09:05;;;;;;;7.57;6.78;;;;;;;8.27;69.88;100808.16;5032484;27;102294;-55
2022/03/04 06:11:31;;;;;;;9.60;7.38;;;;;;;8.27;70.00;100819.00;5040618;27;103808;-54
2022/03/04 06:13:58;;;;;;;7.78;6.68;;;;;;;8.28;69.67;100815.22;5052389;27;102241;-55
2022/03/04 06:16:24;;;;;;;7.85;7.05;;;;;;;8.27;70.09;100821.72;5051825;27;101856;-54
2022/03/04 06:18:52;;;;;;;9.27;7.45;;;;;;;8.27;69.38;100823.63;5052916;27;102180;-55
2022/03/04 06:21:19;;;;;;;8.63;7.68;;;;;;;8.26;69.92;100820.09;5051240;27;103990;-54
2022/03/04 06:23:47;;;;;;;8.13;7.28;;;;;;;8.28;69.79;100820.66;5052261;27;102211;-55
2022/03/04 06:26:13;;;;;;;9.68;7.28;;;;;;;8.26;70.05;100822.81;5052182;27;101930;-55
2022/03/04 06:28:40;;;;;;;9.27;7.78;;;;;;;8.28;70.12;100831.50;5054300;27;102285;-55
2022/03/04 06:31:07;;;;;;;8.02;7.22;;;;;;;8.27;69.71;100829.88;5053066;27;103995;-54
2022/03/04 06:33:35;;;;;;;9.45;7.63;;;;;;;8.27;70.06;100838.00;5053579;27;102442;-55
2022/03/04 06:36:04;;;;;;;8.98;6.75;;;;;;;8.27;69.67;100834.47;5030456;27;101936;-54
2022/03/04 06:38:32;;;;;;;7.93;6.95;;;;;;;8.26;69.83;100839.06;5032475;28;102131;-55
2022/03/04 06:41:01;;;;;;;8.17;6.97;;;;;;;8.26;70.00;100828.22;5031058;27;104070;-55
2022/03/04 06:43:28;;;;;;;8.95;8.05;;;;;;;8.27;69.25;100832.56;5031845;27;102455;-54
2022/03/04 06:45:55;;;;;;;10.65;7.55;;;;;;;8.26;69.51;100836.38;5032436;27;101978;-55
2022/03/04 06:48:22;;;;;;;9.38;8.02;;;;;;;8.27;69.28;100835.28;5036080;28;102195;-55
2022/03/04 06:50:49;;;;;;;9.68;8.23;;;;;;;8.27;69.67;100835.28;5034224;27;103886;-54
2022/03/04 06:53:16;;;;;;;7.93;7.13;;;;;;;8.27;69.98;100839.91;5035001;27;102590;-55
2022/03/04 06:55:43;;;;;;;8.18;7.35;;;;;;;8.28;69.33;100836.91;5034767;27;102422;-55
2022/03/04 06:58:11;;;;;;;8.68;7.60;;;;;;;8.26;69.89;100827.38;5035870;27;102189;-54
2022/03/04 07:00:39;;;;;;;8.60;7.70;;;;;;;8.28;69.60;100836.09;5033744;28;103962;-55
2022/03/04 07:03:05;;;;;;;8.95;7.82;;;;;;;8.27;70.18;100829.88;5035106;27;102345;-55
2022/03/04 07:05:32;;;;;;;9.40;7.65;;;;;;;8.27;69.52;100840.72;5034341;27;102174;-54
2022/03/04 07:07:59;;;;;;;8.70;7.53;;;;;;;8.27;69.46;100838.00;5036160;27;102147;-55
2022/03/04 07:10:25;;;;;;;8.77;7.88;;;;;;;8.26;69.66;100833.66;5034020;27;104060;-55
2022/03/04 07:12:52;;;;;;;10.57;7.60;;;;;;;8.27;69.51;100838.00;5034734;28;102358;-54
2022/03/04 07:15:20;;;;;;;9.95;7.65;;;;;;;8.26;69.52;100830.94;5034137;27;102009;-54
2022/03/04 07:17:47;;;;;;;8.37;7.47;;;;;;;8.27;70.01;100829.88;5036036;27;102791;-54
2022/03/04 07:20:14;;;;;;;9.50;7.68;;;;;;;8.26;69.59;100825.53;5034634;27;103904;-55
2022/03/04 07:22:42;;;;;;;9.32;7.88;;;;;;;8.26;69.00;100828.22;5035368;27;102536;-54
2022/03/04 07:25:11;;;;;;;7.88;7.07;;;;;;;8.27;69.36;100840.72;5035037;27;102236;-54
2022/03/04 07:27:38;;;;;;;10.68;7.72;;;;;;;8.27;69.40;100829.88;5042744;27;102294;-55
2022/03/04 07:30:08;;;;;;;8.25;7.40;;;;;;;8.26;69.42;100833.66;5054908;27;104022;-55
2022/03/04 07:32:38;;;;;;;10.02;7.38;;;;;;;8.26;69.70;100822.81;5055310;27;102344;-55
2022/03/04 07:35:07;;;;;;;8.43;7.55;;;;;;;8.27;70.06;100829.03;5054921;27;101772;-55
2022/03/04 07:37:34;;;;;;;9.52;7.97;;;;;;;8.27;70.12;100829.88;5046864;27;102370;-55
2022/03/04 07:40:01;;;;;;;11.57;8.48;;;;;;;8.27;69.59;100829.03;5033743;27;103972;-54
2022/03/04 07:42:28;;;;;;;10.13;9.13;;;;;;;8.27;69.58;100839.91;5034571;27;102273;-55
2022/03/04 07:44:54;;;;;;;10.88;8.75;;;;;;;8.27;69.70;100834.47;5034036;28;101902;-55
2022/03/04 07:47:21;;;;;;;12.40;10.27;;;;;;;8.27;69.26;100840.72;5034946;28;102598;-55
2022/03/04 07:49:49;;;;;;;12.88;10.98;;;;;;;8.27;69.82;100839.91;5033213;27;103927;-55
2022/03/04 07:52:15;;;;;;;11.75;9.85;;;;;;;8.26;69.26;100839.06;5033681;27;102253;-55
2022/03/04 07:54:42;;;;;;;12.02;9.70;;;;;;;8.26;69.91;100841.78;5033632;28;102321;-54
2022/03/04 07:57:09;;;;;;;12.15;10.25;;;;;;;8.27;69.48;100846.13;5035100;28;102253;-54
2022/03/04 07:59:35;;;;;;;11.70;10.38;;;;;;;8.27;69.69;100856.16;5033088;27;103798;-55
2022/03/04 08:02:02;;;;;;;12.52;10.18;;;;;;;8.27;69.35;100851.56;5034105;27;101970;-55
2022/03/04 08:04:29;;;;;;;12.85;10.10;;;;;;;8.28;69.72;100858.59;5033524;28;102345;-55
2022/03/04 08:06:57;;;;;;;13.57;10.98;;;;;;;8.27;69.23;100862.41;5034866;27;102846;-54
2022/03/04 08:09:26;;;;;;;10.90;9.55;;;;;;;8.27;69.03;100856.16;5033163;28;104228;-54
2022/03/04 08:12:13;;;;;;;12.40;10.45;;;;;;;8.27;69.96;100856.97;5033600;27;102324;-55
2022/03/04 08:14:41;;;;;;;12.13;10.65;;;;;;;8.27;69.71;100867.00;5032978;28;101941;-55
2022/03/04 08:17:08;;;;;;;13.73;11.23;;;;;;;8.27;70.14;100862.41;5034622;28;102294;-55
2022/03/04 08:19:36;;;;;;;13.15;11.02;;;;;;;8.28;69.78;100869.44;5032788;27;103941;-55
2022/03/04 08:22:04;;;;;;;12.05;10.50;;;;;;;8.28;70.04;100866.75;5033861;27;102014;-55
2022/03/04 08:24:31;;;;;;;11.77;10.18;;;;;;;8.28;69.34;100874.88;5032981;28;101899;-55
2022/03/04 08:26:58;;;;;;;12.45;10.50;;;;;;;8.29;70.32;100867.56;5034771;27;102307;-55
2022/03/04 08:29:25;;;;;;;10.57;9.48;;;;;;;8.28;69.39;100861.31;5033171;27;103943;-54
2022/03/04 08:31:51;;;;;;;11.50;10.30;;;;;;;8.28;69.61;100865.94;5033505;28;102412;-55
2022/03/04 08:34:18;;;;;;;13.20;10.65;;;;;;;8.29;69.95;100870.28;5032550;27;102038;-54
2022/03/04 08:36:44;;;;;;;11.95;10.30;;;;;;;8.27;69.43;100867.81;5034004;27;102411;-55
2022/03/04 08:39:12;;;;;;;14.30;10.63;;;;;;;8.27;70.19;100862.41;5026340;27;103882;-55
2022/03/04 08:41:41;;;;;;;13.32;10.88;;;;;;;8.28;70.11;100869.44;5031050;28;102162;-55
2022/03/04 08:44:08;;;;;;;12.95;10.70;;;;;;;8.28;69.90;100857.78;5028071;27;102514;-54
2022/03/04 08:46:36;;;;;;;11.80;10.57;;;;;;;8.29;70.01;100871.09;5023989;27;102201;-55
2022/03/04 08:49:03;;;;;;;11.77;10.43;;;;;;;8.29;69.53;100875.69;5012544;28;104170;-55
2022/03/04 08:51:29;;;;;;;12.00;10.63;;;;;;;8.28;70.07;100874.06;5041568;27;102265;-55
2022/03/04 08:53:56;;;;;;;12.45;10.93;;;;;;;8.28;69.70;100877.59;5032016;27;102770;-55
2022/03/04 08:56:24;;;;;;;12.30;10.60;;;;;;;8.28;69.92;100883.00;5033802;27;102596;-55
2022/03/04 08:58:50;;;;;;;12.63;10.77;;;;;;;8.28;70.07;100883.00;5031838;27;103862;-55
2022/03/04 09:01:17;;;;;;;11.85;10.55;;;;;;;8.29;70.22;100881.94;5032455;28;102359;-55
2022/03/04 09:03:43;;;;;;;13.68;10.13;;;;;;;8.29;69.31;100881.94;5032647;27;101833;-55
2022/03/04 09:06:10;;;;;;;12.80;11.35;;;;;;;8.29;69.20;100878.41;5033842;27;102156;-55
2022/03/04 09:08:39;;;;;;;14.23;11.52;;;;;;;8.29;69.43;100876.50;5031660;27;103421;-55
2022/03/04 09:11:06;;;;;;;14.15;11.00;;;;;;;8.29;69.74;100881.13;5032747;27;102001;-55
2022/03/04 09:13:34;;;;;;;13.32;10.70;;;;;;;8.29;70.21;100873.78;5031867;27;101924;-55
2022/03/04 09:16:21;;;;;;;8.47;7.17;;;;;;;8.29;69.54;100881.94;5033191;27;103097;-54
2022/03/04 09:18:48;;;;;;;11.27;9.88;;;;;;;8.29;69.47;100881.94;5031700;27;103932;-55
2022/03/04 09:21:14;;;;;;;11.63;10.43;;;;;;;8.30;69.70;100880.88;5033220;27;102338;-55
2022/03/04 09:23:41;;;;;;;11.30;10.05;;;;;;;8.30;70.12;100882.78;5031830;28;102630;-55
2022/03/04 09:26:08;;;;;;;14.23;11.77;;;;;;;8.29;70.19;100881.94;5033377;28;102137;-55
2022/03/04 09:28:37;;;;;;;15.85;10.68;;;;;;;8.29;69.97;100878.41;5031815;28;103830;-55
2022/03/04 09:31:03;;;;;;;13.40;11.02;;;;;;;8.29;70.18;100879.22;5032312;28;102317;-55
2022/03/04 09:33:32;;;;;;;15.30;11.57;;;;;;;8.30;69.51;100880.88;5032078;27;102199;-55
2022/03/04 09:36:00;;;;;;;14.20;11.35;;;;;;;8.30;69.63;100883.59;5032951;28;102366;-54
2022/03/04 09:38:27;;;;;;;13.70;11.10;;;;;;;8.29;70.38;100879.22;5031172;27;103844;-55
2022/03/04 09:40:54;;;;;;;12.85;10.57;;;;;;;8.30;69.34;100880.06;5032099;28;101903;-55
2022/03/04 09:43:22;;;;;;;13.68;11.07;;;;;;;8.29;70.11;100865.66;5031165;27;101983;-55
2022/03/04 09:45:50;;;;;;;13.82;11.27;;;;;;;8.29;69.62;100865.66;5030975;27;102526;-55
2022/03/04 09:48:17;;;;;;;15.55;11.10;;;;;;;8.29;69.87;100876.50;5030745;28;104085;-55
2022/03/04 09:50:46;;;;;;;13.80;11.45;;;;;;;8.30;69.52;100883.59;5031036;28;102492;-54
2022/03/04 09:53:13;;;;;;;14.13;11.50;;;;;;;8.30;69.49;100867.31;5031165;27;102296;-55
2022/03/04 09:55:41;;;;;;;12.82;10.85;;;;;;;8.29;69.97;100873.78;5032663;27;102580;-54
2022/03/04 09:58:12;;;;;;;13.85;11.07;;;;;;;8.31;69.53;100878.97;5030913;28;103919;-55
2022/03/04 10:00:39;;;;;;;16.50;13.20;;;;;;;8.31;69.68;100871.66;5031839;28;102776;-55
2022/03/04 10:03:18;;;;;;;15.27;13.48;;;;;;;8.31;70.29;100868.94;5031729;27;102311;-55
2022/03/04 10:05:53;;;;;;;15.50;13.77;;;;;;;8.30;69.82;100870.03;5032636;28;102239;-55
2022/03/04 10:08:20;;;;;;;16.23;14.07;;;;;;;8.31;69.82;100879.78;5031190;28;103989;-54
2022/03/04 10:10:48;;;;;;;14.38;12.80;;;;;;;8.31;69.53;100873.56;5031564;28;102184;-54
2022/03/04 10:13:15;;;;;;;16.60;13.05;;;;;;;8.31;69.60;100874.38;5031687;27;101972;-55
2022/03/04 10:15:54;;;;;;;16.73;14.00;;;;;;;8.31;70.02;100874.38;5032052;27;102513;-55
2022/03/04 10:18:28;;;;;;;14.48;12.50;;;;;;;8.31;69.16;100876.28;5030849;27;103760;-55
2022/03/04 10:20:55;;;;;;;18.20;13.80;;;;;;;8.31;69.27;100877.09;5032447;27;102511;-55
2022/03/04 10:23:23;;;;;;;15.02;12.98;;;;;;;8.31;69.74;100868.13;5034550;28;101857;-55
2022/03/04 10:25:51;;;;;;;14.75;12.65;;;;;;;8.31;69.12;100873.56;5015872;28;102180;-55
2022/03/04 10:28:18;;;;;;;14.35;12.68;;;;;;;8.31;69.54;100874.38;5014390;28;104098;-54
2022/03/04 10:30:47;;;;;;;15.85;13.95;;;;;;;8.32;69.56;100864.34;5015071;28;102459;-54
2022/03/04 10:33:15;;;;;;;;;;;;;;;8.31;69.27;100858.09;5032354;27;102931;-55
2022/03/04 10:35:44;;;;;;;15.90;13.60;;;;;;;8.32;69.50;100859.75;5035355;27;102509;-55
2022/03/04 10:38:20;;;;;;;16.98;13.57;;;;;;;8.32;68.78;100853.50;5020672;28;103931;-55
2022/03/04 10:40:48;;;;;;;16.58;13.20;;;;;;;8.32;68.99;100859.75;5023813;28;101856;-55
2022/03/04 10:43:22;;;;;;;16.15;12.60;;;;;;;8.32;68.87;100851.59;5039205;27;101974;-55
2022/03/04 10:45:59;;;;;;;14.23;12.57;;;;;;;8.33;68.95;100849.72;5035606;27;102215;-54
2022/03/04 10:48:26;;;;;;;15.27;12.00;;;;;;;8.33;69.00;100839.69;5047890;27;104005;-55
2022/03/04 10:50:55;;;;;;;16.10;12.27;;;;;;;8.34;69.36;100840.53;5042987;27;102993;-54
2022/03/04 10:53:23;;;;;;;15.32;13.27;;;;;;;8.34;69.54;100840.53;5036451;28;102665;-55
2022/03/04 10:55:51;;;;;;;12.90;11.18;;;;;;;8.33;68.90;100849.72;5037356;27;103002;-55
2022/03/04 10:58:19;;;;;;;15.32;12.38;;;;;;;8.33;70.04;100839.69;5040381;27;104361;-55
2022/03/04 11:00:48;;;;;;;13.37;11.70;;;;;;;8.34;69.08;100835.09;5036447;27;102049;-55
2022/03/04 11:03:18;;;;;;;14.13;11.98;;;;;;;8.33;69.12;100834.28;5035056;27;101982;-55
2022/03/04 11:05:45;;;;;;;14.00;11.43;;;;;;;8.34;69.60;100838.63;5035625;27;102431;-55
2022/03/04 11:08:14;;;;;;;13.80;11.82;;;;;;;8.33;69.03;100828.84;5034394;28;103960;-55
2022/03/04 11:10:40;;;;;;;13.48;12.00;;;;;;;8.34;69.23;100829.69;5035277;27;102262;-55
2022/03/04 11:13:10;;;;;;;13.25;11.63;;;;;;;8.33;69.60;100831.56;5049171;27;102219;-55
2022/03/04 11:15:38;;;;;;;11.07;9.00;;;;;;;8.34;69.25;100833.19;5055927;27;102697;-55
2022/03/04 11:18:07;;;;;;;14.90;11.97;;;;;;;8.34;69.76;100837.81;5039590;27;103838;-55
2022/03/04 11:20:55;;;;;;;13.27;11.37;;;;;;;8.33;69.71;100833.44;5034542;28;102535;-55